createdAt,value
2022-09-18T00:08:16.552Z,1.68
2022-09-18T00:28:22.348Z,2.46
2022-09-18T00:48:28.116Z,2.54
2022-09-18T01:08:33.870Z,2.58
2022-09-18T01:28:39.600Z,3.42
2022-09-18T01:48:45.405Z,3.49
2022-09-18T02:08:51.147Z,3.56
2022-09-18T02:28:56.934Z,3.56
2022-09-18T02:49:02.691Z,3.52
2022-09-18T03:09:08.455Z,2.17
2022-09-18T03:29:14.208Z,2.70
2022-09-18T03:49:19.940Z,2.21
2022-09-18T04:09:25.706Z,1.40
2022-09-18T04:29:31.515Z,2.28
2022-09-18T04:49:37.239Z,4.08
2022-09-18T05:09:43.061Z,2.62
2022-09-18T05:29:48.807Z,3.01
2022-09-18T05:49:54.567Z,2.56
2022-09-18T06:10:00.352Z,2.90
2022-09-18T06:30:06.252Z,3.95
2022-09-18T06:31:23.308Z,2.91
2022-09-18T06:51:19.023Z,3.60
2022-09-18T07:11:24.824Z,3.24
2022-09-18T07:31:30.612Z,2.54
2022-09-18T07:51:36.344Z,3.14
2022-09-18T08:11:42.097Z,1.89
2022-09-18T08:31:47.960Z,1.94
2022-09-18T08:51:53.631Z,2.28
2022-09-18T09:11:59.369Z,1.34
2022-09-18T09:32:05.174Z,1.25
2022-09-18T09:52:11.458Z,0.75
2022-09-18T10:12:17.610Z,1.26
2022-09-18T10:32:23.823Z,1.22
2022-09-18T10:52:30.074Z,0.82
2022-09-18T11:12:35.848Z,1.75
2022-09-18T11:32:41.595Z,1.78
2022-09-18T11:52:47.351Z,1.70
2022-09-18T12:12:52.222Z,1.59
2022-09-18T12:32:58.477Z,0.87
2022-09-18T12:53:09.788Z,0.68
2022-09-18T13:13:11.179Z,0.93
2022-09-18T13:33:18.091Z,1.26
2022-09-18T13:53:24.303Z,2.13
2022-09-18T14:13:30.498Z,1.80
2022-09-18T14:33:36.754Z,1.53
2022-09-18T14:53:42.984Z,2.54
2022-09-18T15:13:48.782Z,3.38
2022-09-18T15:33:55.013Z,2.34
2022-09-18T15:54:01.258Z,1.70
2022-09-18T16:14:07.015Z,3.20
2022-09-18T16:34:12.745Z,2.07
2022-09-18T16:54:18.555Z,3.25
2022-09-18T17:14:24.289Z,2.42
2022-09-18T17:34:30.064Z,3.83
2022-09-18T17:54:35.804Z,1.77
2022-09-18T18:14:41.551Z,2.33
2022-09-18T18:34:47.819Z,2.37
2022-09-18T18:54:53.594Z,2.13
2022-09-18T19:14:59.368Z,1.82
2022-09-18T19:35:05.146Z,2.40
2022-09-18T19:55:11.162Z,1.08
2022-09-18T20:15:17.174Z,2.25
2022-09-18T20:35:22.919Z,2.68
2022-09-18T20:55:28.719Z,2.84
2022-09-18T21:15:34.501Z,2.46
2022-09-18T21:35:40.352Z,1.84
2022-09-18T21:55:46.140Z,1.68
2022-09-18T22:15:51.954Z,2.62
2022-09-18T22:35:57.745Z,1.90
2022-09-18T22:56:03.483Z,0.47
2022-09-18T23:16:09.292Z,0.40
2022-09-18T23:36:14.998Z,0.53
2022-09-18T23:56:20.727Z,0.47
